Time;durP1;ratioP1;P1;durP2;ratioP2;P2;SDS_P1;SDS_P2;PMS_P1;PMS_P2;Temp;Humidity;BMP_temperature;BMP_pressure;BME280_temperature;BME280_humidity;BME280_pressure;Samples;Min_cycle;Max_cycle;Signal;HPM_P1;HPM_P2
2021/05/29 00:00:14;;;;;;;10.67;5.97;;;;;;;9.91;87.64;96457.47;1052556;28;20499;-45
2021/05/29 00:00:45;;;;;;;8.95;6.03;;;;;;;9.96;87.72;96455.13;1052654;28;20027;-45
2021/05/29 00:01:16;;;;;;;8.45;6.05;;;;;;;9.94;87.59;96456.28;1052691;28;20024;-45
2021/05/29 00:01:46;;;;;;;9.23;6.10;;;;;;;9.93;87.59;96457.31;1052991;28;20047;-45
2021/05/29 00:02:17;;;;;;;10.33;6.10;;;;;;;9.91;88.19;96462.72;1056978;28;20012;-45
2021/05/29 00:02:47;;;;;;;11.63;6.70;;;;;;;9.85;88.96;96458.19;1052584;28;20020;-46
2021/05/29 00:03:18;;;;;;;9.37;6.50;;;;;;;9.83;90.17;96460.19;1052612;28;20023;-46
2021/05/29 00:03:48;;;;;;;14.93;6.60;;;;;;;9.82;89.48;96461.19;1050988;28;21207;-44
2021/05/29 00:04:18;;;;;;;12.00;6.87;;;;;;;9.81;89.29;96462.22;1052524;28;20024;-45
2021/05/29 00:04:49;;;;;;;8.83;6.07;;;;;;;9.81;88.74;96475.34;1056736;28;20055;-45
2021/05/29 00:05:19;;;;;;;10.47;6.50;;;;;;;9.78;88.72;96465.19;1056819;28;20098;-45
2021/05/29 00:05:50;;;;;;;10.90;6.57;;;;;;;9.78;88.75;96467.81;1056821;28;20012;-46
2021/05/29 00:06:20;;;;;;;11.37;6.70;;;;;;;9.76;88.43;96469.81;1052511;28;20020;-45
2021/05/29 00:06:51;;;;;;;12.40;6.50;;;;;;;9.79;88.62;96469.44;1052645;28;20100;-47
2021/05/29 00:07:21;;;;;;;12.60;6.77;;;;;;;9.76;88.67;96470.63;1052662;28;20020;-45
2021/05/29 00:07:52;;;;;;;13.57;6.70;;;;;;;9.76;88.28;96468.00;1052665;28;20016;-45
2021/05/29 00:08:22;;;;;;;10.03;5.83;;;;;;;9.72;88.35;96461.47;1052547;28;20062;-45
2021/05/29 00:08:53;;;;;;;8.90;6.30;;;;;;;9.75;88.48;96469.00;1052689;28;20016;-46
2021/05/29 00:09:23;;;;;;;12.00;6.40;;;;;;;9.75;88.38;96469.00;1052787;28;20058;-50
2021/05/29 00:09:54;;;;;;;11.90;6.23;;;;;;;9.75;88.34;96469.00;1052947;28;20012;-47
2021/05/29 00:10:24;;;;;;;9.37;6.07;;;;;;;9.74;88.82;96472.63;1056992;28;20031;-45
2021/05/29 00:10:56;;;;;;;10.73;7.00;;;;;;;9.74;88.65;96472.63;1056962;28;20047;-45
2021/05/29 00:11:27;;;;;;;10.80;7.07;;;;;;;9.75;87.79;96470.81;1056956;28;20377;-45
2021/05/29 00:11:57;;;;;;;10.30;6.40;;;;;;;9.74;88.41;96471.81;1057326;28;20016;-45
2021/05/29 00:12:28;;;;;;;12.50;6.73;;;;;;;9.77;88.11;96472.25;1052775;28;20081;-46
2021/05/29 00:12:58;;;;;;;9.23;6.33;;;;;;;9.81;88.03;96467.47;1052882;28;20019;-46
2021/05/29 00:13:30;;;;;;;11.00;6.30;;;;;;;9.78;87.80;96465.19;1053148;28;20016;-46
2021/05/29 00:14:01;;;;;;;9.43;6.35;;;;;;;9.78;88.55;96473.09;1052972;28;20036;-47
2021/05/29 00:14:33;;;;;;;9.87;6.40;;;;;;;9.84;88.15;96466.25;1055063;28;20024;-46
2021/05/29 00:15:04;;;;;;;10.32;6.45;;;;;;;9.83;88.13;96465.47;1056980;28;20024;-48
2021/05/29 00:15:34;;;;;;;8.73;5.85;;;;;;;9.81;87.79;96464.84;1056943;28;20015;-45
2021/05/29 00:16:07;;;;;;;9.50;6.20;;;;;;;9.83;88.11;96462.84;1056871;28;20063;-47
2021/05/29 00:16:37;;;;;;;12.52;6.43;;;;;;;9.81;87.76;96470.09;1056960;28;20035;-46
2021/05/29 00:17:08;;;;;;;9.70;6.00;;;;;;;9.81;87.54;96462.22;1056976;28;20464;-46
2021/05/29 00:17:39;;;;;;;9.37;6.13;;;;;;;9.80;87.58;96462.38;1056945;28;20042;-46
2021/05/29 00:18:09;;;;;;;8.40;6.03;;;;;;;9.80;87.81;96462.38;1057013;28;20030;-46
2021/05/29 00:18:40;;;;;;;9.63;6.03;;;;;;;9.79;88.14;96466.81;1056861;28;20035;-48
2021/05/29 00:19:10;;;;;;;9.80;5.90;;;;;;;9.81;88.35;96453.47;1056815;28;20080;-47
2021/05/29 00:19:41;;;;;;;16.73;6.30;;;;;;;9.86;87.76;96457.22;1052718;28;20099;-48
2021/05/29 00:20:12;;;;;;;12.27;5.50;;;;;;;9.85;88.07;96458.19;1052558;28;20020;-45
2021/05/29 00:20:42;;;;;;;8.97;6.13;;;;;;;9.83;88.06;96457.56;1052621;28;20016;-46
2021/05/29 00:21:13;;;;;;;8.27;5.67;;;;;;;9.81;88.06;96462.22;1052764;28;20028;-49
2021/05/29 00:21:43;;;;;;;11.07;6.03;;;;;;;9.82;87.94;96458.56;1056301;28;20038;-46
2021/05/29 00:22:13;;;;;;;8.63;5.27;;;;;;;9.84;87.63;96453.94;1052619;28;20020;-46
2021/05/29 00:22:44;;;;;;;12.37;6.23;;;;;;;9.85;87.97;96458.19;1052678;28;20019;-47
2021/05/29 00:23:14;;;;;;;8.47;5.93;;;;;;;9.86;88.17;96453.78;1052709;28;20032;-49
2021/05/29 00:23:45;;;;;;;9.70;6.03;;;;;;;9.86;87.79;96456.41;1052815;28;20051;-49
2021/05/29 00:24:15;;;;;;;9.33;5.73;;;;;;;9.86;87.37;96456.41;1052715;28;20091;-49
2021/05/29 00:24:46;;;;;;;9.40;5.67;;;;;;;9.92;87.56;96455.66;1056912;28;20027;-50
2021/05/29 00:25:16;;;;;;;8.43;5.83;;;;;;;9.87;87.59;96450.97;1052955;28;20055;-49
2021/05/29 00:25:47;;;;;;;10.53;6.40;;;;;;;9.90;87.29;96447.97;1053131;28;20012;-49
2021/05/29 00:26:17;;;;;;;8.57;6.40;;;;;;;9.92;87.30;96453.03;1052885;28;20027;-50
2021/05/29 00:26:48;;;;;;;9.90;5.53;;;;;;;9.89;87.72;96454.22;1053124;28;20360;-47
2021/05/29 00:27:18;;;;;;;10.90;6.20;;;;;;;9.85;87.73;96454.75;1053043;28;20024;-48
2021/05/29 00:27:49;;;;;;;7.27;5.77;;;;;;;9.88;87.31;96446.50;1052802;28;20009;-48
2021/05/29 00:28:19;;;;;;;11.87;5.67;;;;;;;9.87;87.14;96439.59;1052782;28;20024;-49
2021/05/29 00:28:50;;;;;;;10.93;6.20;;;;;;;9.89;87.21;96446.31;1048425;28;20036;-49
2021/05/29 00:29:20;;;;;;;9.30;5.57;;;;;;;9.87;87.57;96436.97;1048724;28;20063;-46
2021/05/29 00:29:51;;;;;;;8.43;5.53;;;;;;;9.82;87.49;96442.78;1052798;28;20036;-48
2021/05/29 00:30:22;;;;;;;11.40;5.80;;;;;;;9.83;88.01;96441.00;1052670;28;20105;-47
2021/05/29 00:30:52;;;;;;;11.40;6.20;;;;;;;9.88;87.70;96436.78;1056901;28;20019;-47
2021/05/29 00:31:23;;;;;;;9.57;6.37;;;;;;;9.89;87.71;96437.63;1056808;28;20011;-46
2021/05/29 00:31:53;;;;;;;9.30;5.90;;;;;;;9.86;87.49;96438.78;1053134;28;20182;-45
2021/05/29 00:32:23;;;;;;;9.30;5.20;;;;;;;9.86;87.55;96438.00;1052701;28;20446;-45
2021/05/29 00:32:54;;;;;;;11.27;5.83;;;;;;;9.80;88.19;96441.34;1053019;28;20008;-45
2021/05/29 00:33:25;;;;;;;9.07;5.63;;;;;;;9.81;88.43;96438.53;1053100;28;20028;-45
2021/05/29 00:33:55;;;;;;;8.90;5.60;;;;;;;9.80;89.12;96441.34;1053250;28;20352;-47
2021/05/29 00:34:26;;;;;;;9.33;5.37;;;;;;;9.84;88.53;96438.16;1053069;28;20046;-46
2021/05/29 00:34:56;;;;;;;11.53;6.03;;;;;;;9.85;88.05;96445.03;1052750;28;20008;-47
2021/05/29 00:35:27;;;;;;;8.67;6.27;;;;;;;9.89;87.74;96441.06;1052794;28;20511;-45
2021/05/29 00:35:57;;;;;;;7.03;5.70;;;;;;;9.86;87.75;96443.25;1052963;28;20089;-45
2021/05/29 00:36:27;;;;;;;9.17;5.60;;;;;;;9.89;87.98;96442.88;1052572;28;20024;-48
2021/05/29 00:36:58;;;;;;;8.90;5.80;;;;;;;9.85;87.71;96437.16;1052853;28;20070;-45
2021/05/29 00:37:28;;;;;;;9.40;6.47;;;;;;;9.82;87.83;96441.97;1053068;28;20012;-46
2021/05/29 00:37:59;;;;;;;9.77;5.30;;;;;;;9.81;88.23;96443.78;1052961;28;20043;-46
2021/05/29 00:38:30;;;;;;;11.37;6.60;;;;;;;9.81;88.03;96446.44;1053095;28;20009;-46
2021/05/29 00:39:00;;;;;;;9.65;6.43;;;;;;;9.82;87.90;96447.22;1052593;28;20012;-46
2021/05/29 00:39:31;;;;;;;9.60;6.10;;;;;;;9.80;88.33;96444.78;1052612;28;20020;-46
2021/05/29 00:40:03;;;;;;;10.47;5.83;;;;;;;9.83;89.03;96439.16;1052761;28;20106;-45
2021/05/29 00:40:34;;;;;;;9.25;5.47;;;;;;;9.78;88.96;96447.59;1052837;28;20065;-47
2021/05/29 00:41:08;;;;;;;11.05;6.30;;;;;;;9.79;89.13;96453.66;1052984;28;20012;-49
2021/05/29 00:41:38;;;;;;;10.05;6.15;;;;;;;9.80;88.65;96439.53;1053004;28;20016;-47
2021/05/29 00:42:09;;;;;;;9.70;6.23;;;;;;;9.78;88.51;96439.72;1052970;28;20421;-46
2021/05/29 00:42:40;;;;;;;9.10;6.27;;;;;;;9.83;88.74;96443.63;1052996;28;20012;-48
2021/05/29 00:43:10;;;;;;;8.77;6.00;;;;;;;9.79;89.02;96451.03;1052352;28;20020;-46
2021/05/29 00:43:41;;;;;;;7.63;5.67;;;;;;;9.81;88.57;96440.34;1052881;28;20012;-49
2021/05/29 00:44:13;;;;;;;9.47;5.70;;;;;;;9.80;88.57;96441.34;1052457;28;20534;-50
2021/05/29 00:44:45;;;;;;;9.32;5.47;;;;;;;9.81;89.01;96441.16;1052707;28;20009;-48
2021/05/29 00:45:16;;;;;;;9.30;5.47;;;;;;;9.80;88.39;96447.41;1052048;28;20504;-48
2021/05/29 00:45:46;;;;;;;9.40;5.63;;;;;;;9.80;88.82;96443.97;1048802;28;20048;-53
2021/05/29 00:46:16;;;;;;;7.70;5.57;;;;;;;9.76;88.26;96436.47;1048371;28;20024;-48
2021/05/29 00:46:47;;;;;;;9.97;5.43;;;;;;;9.77;88.40;96451.22;1048361;28;20071;-49
2021/05/29 00:47:21;;;;;;;8.93;5.60;;;;;;;9.74;88.89;96443.69;1048432;28;20020;-45
2021/05/29 00:47:51;;;;;;;8.60;5.72;;;;;;;9.74;89.50;96440.25;1048729;28;20023;-47
2021/05/29 00:48:22;;;;;;;11.20;6.23;;;;;;;9.73;89.44;96443.88;1048761;28;20032;-47
2021/05/29 00:48:52;;;;;;;9.63;6.00;;;;;;;9.72;88.78;96442.25;1048750;28;20024;-48
2021/05/29 00:49:23;;;;;;;9.37;5.63;;;;;;;9.76;88.40;96444.34;1048505;28;20048;-47
2021/05/29 00:49:54;;;;;;;8.87;5.83;;;;;;;9.80;88.41;96442.16;1048524;28;20108;-49
2021/05/29 00:50:25;;;;;;;8.57;5.82;;;;;;;9.84;88.69;96439.97;1048412;28;20043;-47
2021/05/29 00:51:01;;;;;;;8.37;5.53;;;;;;;9.83;88.40;96436.53;1048462;28;20079;-46
2021/05/29 00:51:31;;;;;;;8.65;5.78;;;;;;;9.78;87.93;96429.19;1048726;28;20048;-49
2021/05/29 00:52:02;;;;;;;7.07;5.50;;;;;;;9.76;88.33;96428.56;1044228;28;20025;-44
2021/05/29 00:52:33;;;;;;;6.90;5.50;;;;;;;9.74;88.64;96430.53;1044289;28;20100;-45
2021/05/29 00:53:04;;;;;;;8.18;5.65;;;;;;;9.72;88.83;96422.03;1044316;28;20542;-48
2021/05/29 00:53:35;;;;;;;10.03;5.43;;;;;;;9.78;88.30;96420.50;1044597;28;20111;-49
2021/05/29 00:54:07;;;;;;;8.93;5.63;;;;;;;9.84;88.58;96418.94;1048519;28;20456;-46
2021/05/29 00:54:37;;;;;;;8.45;6.13;;;;;;;9.85;88.10;96424.00;1048324;28;20020;-47
2021/05/29 00:55:10;;;;;;;8.37;5.30;;;;;;;9.89;87.42;96421.84;1048084;28;20056;-49
2021/05/29 00:55:40;;;;;;;9.27;6.30;;;;;;;9.89;87.82;96421.84;1044288;28;20466;-46
2021/05/29 00:56:11;;;;;;;10.43;5.97;;;;;;;9.89;87.83;96421.84;1040633;28;20056;-47
2021/05/29 00:56:41;;;;;;;10.00;6.10;;;;;;;9.83;88.12;96418.13;1044201;28;20027;-47
2021/05/29 00:57:12;;;;;;;9.43;6.57;;;;;;;9.84;88.73;96425.03;1044392;28;20532;-45
2021/05/29 00:57:45;;;;;;;8.02;5.55;;;;;;;9.82;88.27;96421.75;1048490;28;20054;-46
2021/05/29 00:58:16;;;;;;;11.30;5.50;;;;;;;9.83;88.00;96423.38;1048758;28;20263;-48
2021/05/29 00:58:46;;;;;;;10.33;5.70;;;;;;;9.81;88.76;96417.50;1048274;28;20025;-48
2021/05/29 00:59:17;;;;;;;8.73;5.50;;;;;;;9.85;88.50;96423.19;1044304;28;20416;-47
2021/05/29 00:59:47;;;;;;;12.03;6.47;;;;;;;9.84;88.36;96422.41;1040076;28;20060;-48
2021/05/29 01:00:20;;;;;;;8.23;5.77;;;;;;;9.88;87.32;96423.63;1040051;28;20382;-46
2021/05/29 01:00:50;;;;;;;8.15;5.57;;;;;;;9.92;87.21;96424.91;1040894;28;20025;-47
2021/05/29 01:01:21;;;;;;;9.17;5.93;;;;;;;9.86;88.17;96417.75;1048622;28;20484;-48
2021/05/29 01:01:51;;;;;;;8.87;6.20;;;;;;;9.84;88.60;96416.28;1048789;28;20453;-50
2021/05/29 01:02:22;;;;;;;10.37;5.93;;;;;;;9.84;88.28;96425.03;1048788;28;20072;-50
2021/05/29 01:02:52;;;;;;;9.57;6.00;;;;;;;9.82;88.23;96420.94;1048340;28;20461;-49
2021/05/29 01:03:23;;;;;;;9.10;5.80;;;;;;;9.83;88.76;96428.63;1048446;28;20020;-46
2021/05/29 01:03:53;;;;;;;9.40;5.83;;;;;;;9.76;88.53;96425.94;1048366;28;20362;-50
2021/05/29 01:04:24;;;;;;;7.90;5.90;;;;;;;9.79;88.96;96427.38;1051344;28;20531;-49
2021/05/29 01:04:54;;;;;;;8.20;5.70;;;;;;;9.77;89.22;96422.28;1052878;28;20048;-46
2021/05/29 01:05:25;;;;;;;7.53;5.57;;;;;;;9.77;88.65;96424.91;1053058;28;20020;-48
2021/05/29 01:05:55;;;;;;;11.47;5.57;;;;;;;9.78;89.41;96423.13;1052772;28;20068;-47
2021/05/29 01:06:26;;;;;;;8.23;5.60;;;;;;;9.80;88.58;96423.75;1052829;28;20062;-47
2021/05/29 01:06:56;;;;;;;9.27;5.60;;;;;;;9.80;88.48;96421.13;1052985;28;20101;-46
2021/05/29 01:07:27;;;;;;;11.07;6.57;;;;;;;9.77;89.51;96410.97;1052908;28;20440;-46
2021/05/29 01:07:57;;;;;;;11.47;6.03;;;;;;;9.82;88.57;96419.09;1052779;28;20069;-47
2021/05/29 01:08:28;;;;;;;11.57;6.10;;;;;;;9.79;88.80;96416.84;1052909;28;20437;-45
2021/05/29 01:08:58;;;;;;;8.30;6.00;;;;;;;9.77;88.86;96417.03;1052980;28;20044;-46
2021/05/29 01:09:29;;;;;;;8.93;5.57;;;;;;;9.76;89.36;96407.53;1052934;28;20495;-45
2021/05/29 01:10:00;;;;;;;11.10;5.50;;;;;;;9.77;88.73;96413.59;1053055;28;20437;-44
2021/05/29 01:10:31;;;;;;;8.18;5.50;;;;;;;9.78;89.00;96415.25;1053346;28;20022;-44
2021/05/29 01:11:01;;;;;;;7.80;5.23;;;;;;;9.79;89.14;96408.97;1053367;28;20009;-45
2021/05/29 01:11:32;;;;;;;11.10;5.57;;;;;;;9.79;88.81;96422.09;1053410;28;20012;-46
2021/05/29 01:12:04;;;;;;;7.70;5.97;;;;;;;9.74;88.90;96420.03;1053514;28;20008;-45
2021/05/29 01:12:34;;;;;;;9.13;5.65;;;;;;;9.77;89.29;96414.41;1053748;28;20020;-47
2021/05/29 01:13:09;;;;;;;11.93;6.40;;;;;;;9.75;90.01;96418.22;1053751;28;20016;-46
2021/05/29 01:13:40;;;;;;;9.10;6.53;;;;;;;9.75;90.15;96424.28;1053678;28;20016;-44
2021/05/29 01:14:10;;;;;;;12.90;6.10;;;;;;;9.70;90.02;96418.78;1053796;28;20020;-44
2021/05/29 01:14:52;;;;;;;8.00;5.93;;;;;;;9.70;89.65;96415.31;1053608;28;20023;-46
2021/05/29 01:15:23;;;;;;;8.13;5.38;;;;;;;9.75;89.45;96412.97;1053789;28;20019;-45
2021/05/29 01:15:57;;;;;;;8.63;5.47;;;;;;;9.71;89.85;96409.88;1053877;28;20012;-45
2021/05/29 01:17:06;;;;;;;10.88;5.78;;;;;;;9.74;90.00;96409.50;1053598;28;20369;-46
2021/05/29 01:17:37;;;;;;;8.63;5.77;;;;;;;9.72;89.78;96402.81;1053414;28;20013;-46
2021/05/29 01:18:12;;;;;;;8.13;5.67;;;;;;;9.70;90.20;96404.78;1053543;28;20012;-49
2021/05/29 01:18:42;;;;;;;8.75;6.05;;;;;;;9.71;89.42;96401.97;1053289;28;20027;-48
2021/05/29 01:19:13;;;;;;;12.63;6.37;;;;;;;9.76;88.39;96401.44;1053454;28;20089;-46
2021/05/29 01:19:43;;;;;;;9.03;5.67;;;;;;;9.72;89.05;96406.25;1053455;28;20011;-49
2021/05/29 01:20:14;;;;;;;9.57;5.87;;;;;;;9.74;88.79;96406.06;1049827;28;20008;-48
2021/05/29 01:20:45;;;;;;;8.90;6.20;;;;;;;9.73;89.54;96405.28;1053519;28;20016;-46
2021/05/29 01:21:15;;;;;;;9.05;5.90;;;;;;;9.72;89.10;96406.25;1053422;28;20020;-50
2021/05/29 01:21:46;;;;;;;8.13;5.97;;;;;;;9.72;89.19;96403.63;1053523;28;20042;-49
2021/05/29 01:22:34;;;;;;;9.50;5.83;;;;;;;9.72;88.93;96400.19;1053613;28;20012;-46
2021/05/29 01:23:05;;;;;;;10.35;6.10;;;;;;;9.70;89.89;96402.16;1053902;28;20046;-47
2021/05/29 01:23:35;;;;;;;10.27;5.80;;;;;;;9.73;89.71;96402.63;1053697;28;20122;-50
2021/05/29 01:24:06;;;;;;;11.77;5.87;;;;;;;9.71;89.56;96403.81;1053638;28;20016;-50
2021/05/29 01:24:37;;;;;;;11.57;6.20;;;;;;;9.72;89.70;96401.00;1053551;28;20030;-48
2021/05/29 01:25:31;;;;;;;10.57;6.38;;;;;;;9.73;89.77;96396.53;1053638;28;20018;-49
2021/05/29 01:26:01;;;;;;;11.18;6.22;;;;;;;9.69;90.82;96408.44;1053547;28;20033;-49
2021/05/29 01:26:32;;;;;;;11.53;6.67;;;;;;;9.67;90.25;96402.53;1053614;28;20055;-48
2021/05/29 01:27:03;;;;;;;9.03;6.40;;;;;;;9.65;90.93;96400.09;1053394;28;20070;-47
2021/05/29 01:27:33;;;;;;;9.68;6.80;;;;;;;9.64;91.14;96402.91;1053315;28;20113;-46
2021/05/29 01:28:17;;;;;;;11.33;6.57;;;;;;;9.60;90.92;96398.00;1053228;28;20078;-46
2021/05/29 01:28:53;;;;;;;11.18;6.75;;;;;;;9.63;90.96;96399.47;1051042;28;20020;-46
2021/05/29 01:29:24;;;;;;;9.50;6.32;;;;;;;9.65;91.34;96401.91;1053467;28;20088;-46
2021/05/29 01:29:56;;;;;;;10.93;6.37;;;;;;;9.65;91.09;96402.72;1049295;28;20074;-45
2021/05/29 01:30:27;;;;;;;9.75;6.13;;;;;;;9.70;90.87;96404.78;1050404;28;20070;-46
2021/05/29 01:31:06;;;;;;;9.95;6.28;;;;;;;9.73;90.62;96400.00;1053394;28;20028;-45
2021/05/29 01:31:36;;;;;;;9.57;5.93;;;;;;;9.71;90.28;96399.34;1053524;28;20484;-49
2021/05/29 01:32:07;;;;;;;11.03;6.33;;;;;;;9.71;91.08;96403.81;1053748;28;20032;-49
2021/05/29 01:32:38;;;;;;;9.70;6.00;;;;;;;9.71;91.78;96399.34;1053600;28;20027;-46
2021/05/29 01:33:21;;;;;;;8.90;5.77;;;;;;;9.75;91.31;96403.25;1057532;28;20035;-47
2021/05/29 01:33:56;;;;;;;11.85;6.10;;;;;;;9.75;90.88;96397.19;1057503;28;20098;-47
2021/05/29 01:34:28;;;;;;;11.07;5.80;;;;;;;9.79;90.06;96401.06;1057261;28;20070;-46
2021/05/29 01:35:00;;;;;;;8.30;5.75;;;;;;;9.76;89.79;96404.06;1054878;28;20023;-48
2021/05/29 01:35:31;;;;;;;8.45;5.80;;;;;;;9.77;90.04;96403.06;1053658;28;20024;-46
2021/05/29 01:36:04;;;;;;;10.90;6.00;;;;;;;9.75;90.32;96400.63;1053351;28;20326;-46
2021/05/29 01:36:37;;;;;;;8.73;6.05;;;;;;;9.77;89.92;96403.88;1053125;28;20095;-47
2021/05/29 01:37:08;;;;;;;10.77;5.97;;;;;;;9.74;90.19;96406.88;1053343;28;20023;-49
2021/05/29 01:37:38;;;;;;;11.93;5.90;;;;;;;9.78;89.66;96402.09;1054134;28;20019;-48
2021/05/29 01:38:10;;;;;;;8.30;5.90;;;;;;;9.81;89.39;96400.88;1057500;28;20446;-47
2021/05/29 01:38:40;;;;;;;9.63;5.95;;;;;;;9.84;89.35;96408.41;1057590;28;20165;-48
2021/05/29 01:39:11;;;;;;;7.90;5.90;;;;;;;9.84;88.58;96406.63;1057256;28;20061;-49
2021/05/29 01:39:41;;;;;;;9.23;5.40;;;;;;;9.82;89.71;96400.69;1053593;28;20039;-47
2021/05/29 01:40:12;;;;;;;10.33;6.10;;;;;;;9.81;89.75;96403.50;1053626;28;20054;-46
2021/05/29 01:40:43;;;;;;;9.17;5.90;;;;;;;9.82;89.76;96405.16;1053580;28;20028;-46
2021/05/29 01:41:14;;;;;;;8.83;5.83;;;;;;;9.81;89.83;96403.50;1053628;28;20023;-47
2021/05/29 01:41:45;;;;;;;10.50;6.35;;;;;;;9.83;89.05;96404.97;1053458;28;20468;-50
2021/05/29 01:42:15;;;;;;;7.93;5.67;;;;;;;9.90;89.23;96403.25;1053056;28;20028;-49
2021/05/29 01:42:45;;;;;;;9.67;5.70;;;;;;;9.92;88.63;96400.44;1049141;28;20024;-49
2021/05/29 01:43:16;;;;;;;9.50;5.70;;;;;;;9.86;88.67;96396.72;1049158;28;20031;-48
2021/05/29 01:43:48;;;;;;;7.67;5.60;;;;;;;9.87;88.49;96398.34;1049261;28;20118;-48
2021/05/29 01:44:21;;;;;;;8.85;6.32;;;;;;;9.85;88.67;96400.34;1053116;28;20095;-45
2021/05/29 01:44:51;;;;;;;11.00;6.10;;;;;;;9.82;88.60;96398.06;1049755;28;20394;-48
2021/05/29 01:45:23;;;;;;;13.53;6.03;;;;;;;9.82;88.30;96400.69;1053360;28;20077;-47
2021/05/29 01:45:53;;;;;;;10.20;6.10;;;;;;;9.78;88.36;96404.72;1053233;28;20076;-48
2021/05/29 01:46:23;;;;;;;8.93;6.30;;;;;;;9.80;88.51;96400.09;1053427;28;20480;-49
2021/05/29 01:46:54;;;;;;;8.40;5.73;;;;;;;9.79;88.38;96406.34;1057232;28;20027;-46
2021/05/29 01:47:24;;;;;;;8.27;6.03;;;;;;;9.80;88.80;96405.34;1049062;28;20035;-46
2021/05/29 01:47:55;;;;;;;11.77;5.70;;;;;;;9.80;88.99;96407.16;1049178;28;20135;-47
2021/05/29 01:48:32;;;;;;;11.50;6.10;;;;;;;9.84;89.09;96406.63;1053378;28;20038;-46
2021/05/29 01:49:03;;;;;;;8.63;5.68;;;;;;;9.83;88.30;96407.59;1049985;28;20024;-46
2021/05/29 01:49:33;;;;;;;9.37;5.97;;;;;;;9.83;88.06;96404.97;1053364;28;20078;-47
2021/05/29 01:50:04;;;;;;;8.23;5.97;;;;;;;9.85;88.48;96410.06;1053364;28;20024;-47
2021/05/29 01:50:45;;;;;;;11.00;5.60;;;;;;;9.88;88.64;96409.69;1053207;28;20023;-46
2021/05/29 01:51:17;;;;;;;8.85;5.47;;;;;;;9.85;88.21;96410.06;1053615;28;20028;-46
2021/05/29 01:51:48;;;;;;;10.32;5.63;;;;;;;9.82;88.15;96407.78;1053559;28;20097;-46
2021/05/29 01:52:18;;;;;;;9.20;5.90;;;;;;;9.81;88.39;96406.97;1053656;28;20024;-48
2021/05/29 01:52:54;;;;;;;8.97;6.23;;;;;;;9.84;88.96;96405.78;1053642;28;20512;-48
2021/05/29 01:53:24;;;;;;;8.05;5.82;;;;;;;9.85;88.51;96408.22;1053137;28;20049;-48
2021/05/29 01:53:55;;;;;;;9.10;5.80;;;;;;;9.84;88.47;96409.25;1053370;28;20092;-47
2021/05/29 01:54:25;;;;;;;10.07;6.13;;;;;;;9.83;88.64;96412.06;1048872;28;20024;-49
2021/05/29 01:54:56;;;;;;;9.20;6.20;;;;;;;9.81;88.51;96412.25;1044888;28;20021;-47
2021/05/29 01:55:28;;;;;;;10.30;6.00;;;;;;;9.81;88.80;96414.88;1044933;28;20100;-47
2021/05/29 01:55:59;;;;;;;11.00;5.75;;;;;;;9.84;88.88;96418.94;1045133;28;20021;-49
2021/05/29 01:56:30;;;;;;;10.32;5.90;;;;;;;9.78;89.20;96413.41;1045301;28;20021;-45
2021/05/29 01:57:00;;;;;;;8.77;6.20;;;;;;;9.73;89.91;96417.56;1049037;28;20017;-46
2021/05/29 01:57:31;;;;;;;8.43;5.70;;;;;;;9.72;89.71;96421.22;1045087;28;20024;-48
2021/05/29 01:58:02;;;;;;;10.00;6.50;;;;;;;9.64;90.12;96416.88;1045013;28;20017;-47
2021/05/29 01:58:34;;;;;;;8.23;5.67;;;;;;;9.67;90.31;96419.16;1049117;28;20021;-45
2021/05/29 01:59:04;;;;;;;10.93;6.10;;;;;;;9.72;89.72;96421.22;1048988;28;20262;-45
2021/05/29 01:59:35;;;;;;;9.63;6.10;;;;;;;9.75;89.26;96421.66;1049372;28;20024;-46
2021/05/29 02:00:06;;;;;;;8.13;5.43;;;;;;;9.75;89.67;96411.16;1049357;28;20104;-46
2021/05/29 02:00:36;;;;;;;10.48;6.47;;;;;;;9.73;89.59;96413.16;1049380;28;20028;-47
2021/05/29 02:01:08;;;;;;;9.50;5.87;;;;;;;9.74;89.70;96416.59;1049259;28;20179;-46
2021/05/29 02:01:38;;;;;;;11.07;5.22;;;;;;;9.79;89.97;96416.84;1048932;28;20036;-49
2021/05/29 02:02:09;;;;;;;12.43;5.70;;;;;;;9.73;89.75;96413.16;1049078;28;20107;-47
2021/05/29 02:02:39;;;;;;;8.83;5.97;;;;;;;9.72;90.19;96413.34;1049121;28;20044;-48
2021/05/29 02:03:10;;;;;;;10.27;6.10;;;;;;;9.75;90.38;96416.41;1049291;28;20039;-47
2021/05/29 02:03:43;;;;;;;10.73;5.90;;;;;;;9.72;90.19;96419.41;1053137;28;20041;-50
2021/05/29 02:04:14;;;;;;;7.97;5.55;;;;;;;9.75;90.51;96420.84;1053041;28;20076;-45
2021/05/29 02:04:44;;;;;;;8.53;5.93;;;;;;;9.73;90.17;96418.41;1053184;28;20102;-47
2021/05/29 02:05:17;;;;;;;9.83;6.10;;;;;;;9.76;90.31;96417.22;1053227;28;20020;-47
2021/05/29 02:05:47;;;;;;;7.35;5.75;;;;;;;9.81;89.81;96420.13;1053507;28;20032;-48
2021/05/29 02:06:18;;;;;;;7.30;5.80;;;;;;;9.80;89.79;96413.22;1053259;28;20077;-45
2021/05/29 02:06:48;;;;;;;7.70;5.93;;;;;;;9.75;90.39;96411.16;1053600;28;20043;-48
2021/05/29 02:07:19;;;;;;;12.17;5.83;;;;;;;9.73;90.41;96414.94;1053388;28;20020;-45
2021/05/29 02:07:49;;;;;;;9.50;6.40;;;;;;;9.74;90.75;96404.25;1053254;28;20015;-46
2021/05/29 02:08:20;;;;;;;12.13;6.20;;;;;;;9.76;90.02;96412.78;1053127;28;20031;-51
2021/05/29 02:08:50;;;;;;;15.73;6.30;;;;;;;9.74;90.33;96408.69;1053205;28;20023;-48
2021/05/29 02:09:21;;;;;;;9.93;6.07;;;;;;;9.70;90.37;96412.69;1053232;28;20498;-45
2021/05/29 02:09:51;;;;;;;8.47;5.57;;;;;;;9.67;90.72;96418.31;1053192;28;20028;-47
2021/05/29 02:10:24;;;;;;;7.23;5.53;;;;;;;9.68;90.90;96402.34;1053224;28;20104;-48
2021/05/29 02:10:54;;;;;;;9.65;6.10;;;;;;;9.70;90.93;96405.63;1048995;28;20120;-47
2021/05/29 02:11:25;;;;;;;9.23;6.30;;;;;;;9.69;90.59;96400.56;1049394;28;20035;-50
2021/05/29 02:11:55;;;;;;;10.73;5.60;;;;;;;9.70;90.56;96407.44;1053309;28;20016;-48
2021/05/29 02:12:26;;;;;;;9.07;5.83;;;;;;;9.67;91.14;96406.00;1053232;28;20032;-47
2021/05/29 02:12:58;;;;;;;9.37;6.10;;;;;;;9.67;91.01;96406.00;1053573;28;20013;-48
2021/05/29 02:13:30;;;;;;;8.48;5.70;;;;;;;9.70;91.14;96399.53;1053384;28;20114;-50
2021/05/29 02:14:00;;;;;;;9.25;6.30;;;;;;;9.65;90.85;96400.09;1053032;28;20081;-49
2021/05/29 02:14:31;;;;;;;8.57;6.00;;;;;;;9.68;90.72;96407.59;1052602;28;20117;-45
2021/05/29 02:15:01;;;;;;;10.93;5.77;;;;;;;9.73;90.04;96402.63;1049117;28;20028;-45
2021/05/29 02:15:34;;;;;;;9.17;5.63;;;;;;;9.71;90.49;96401.19;1049129;28;20566;-46
2021/05/29 02:16:05;;;;;;;8.63;5.90;;;;;;;9.73;90.03;96396.53;1049019;28;20038;-45
2021/05/29 02:16:36;;;;;;;9.07;5.85;;;;;;;9.72;89.89;96400.19;1049382;28;20036;-47
2021/05/29 02:17:06;;;;;;;8.50;5.50;;;;;;;9.67;90.07;96395.47;1053230;28;20024;-46
2021/05/29 02:17:37;;;;;;;9.73;5.97;;;;;;;9.65;90.21;96400.09;1053356;28;20024;-46
2021/05/29 02:18:09;;;;;;;8.60;5.67;;;;;;;9.65;90.21;96401.91;1053643;28;20486;-46
2021/05/29 02:18:40;;;;;;;7.25;5.22;;;;;;;9.65;90.50;96394.81;1053527;28;20027;-45
2021/05/29 02:19:10;;;;;;;11.23;6.20;;;;;;;9.66;90.84;96395.66;1053488;28;20055;-46
2021/05/29 02:19:41;;;;;;;9.97;5.80;;;;;;;9.65;90.84;96399.28;1053702;28;20372;-47
2021/05/29 02:20:14;;;;;;;9.27;5.70;;;;;;;9.66;91.14;96398.28;1049081;28;20138;-47
2021/05/29 02:20:45;;;;;;;9.65;5.90;;;;;;;9.67;90.54;96402.53;1049024;28;20024;-45
2021/05/29 02:21:16;;;;;;;8.63;5.50;;;;;;;9.70;89.74;96396.91;1048709;28;20035;-45
2021/05/29 02:21:47;;;;;;;13.00;5.70;;;;;;;9.70;89.54;96392.50;1045925;28;20021;-45
2021/05/29 02:22:18;;;;;;;7.78;5.57;;;;;;;9.66;90.09;96400.94;1053096;28;20016;-46
2021/05/29 02:22:48;;;;;;;9.23;5.90;;;;;;;9.68;89.94;96394.47;1052922;28;20048;-48
2021/05/29 02:23:23;;;;;;;12.47;6.03;;;;;;;9.72;90.24;96401.00;1053128;28;20016;-47
2021/05/29 02:23:54;;;;;;;10.93;5.95;;;;;;;9.69;90.17;96400.56;1053416;28;20092;-46
2021/05/29 02:24:24;;;;;;;8.93;5.93;;;;;;;9.70;89.80;96392.50;1052878;28;20061;-44
2021/05/29 02:24:55;;;;;;;8.90;5.77;;;;;;;9.71;90.27;96393.28;1053254;28;20046;-48
2021/05/29 02:25:25;;;;;;;12.43;5.80;;;;;;;9.73;89.53;96396.53;1053148;28;20012;-50
2021/05/29 02:25:57;;;;;;;9.80;5.50;;;;;;;9.73;90.19;96393.91;1053172;28;20468;-48
2021/05/29 02:26:28;;;;;;;10.68;6.13;;;;;;;9.67;90.05;96398.13;1053343;28;20372;-46
2021/05/29 02:26:58;;;;;;;9.33;5.90;;;;;;;9.64;89.96;96393.22;1053415;28;20052;-49
2021/05/29 02:27:29;;;;;;;8.87;5.57;;;;;;;9.57;90.75;96389.69;1057314;28;20072;-47
2021/05/29 02:28:00;;;;;;;8.80;5.67;;;;;;;9.53;91.09;96396.28;1057330;28;20137;-47
2021/05/29 02:28:31;;;;;;;11.83;6.23;;;;;;;9.51;90.46;96399.09;1057093;28;20069;-47
2021/05/29 02:29:01;;;;;;;12.35;6.30;;;;;;;9.59;90.96;96392.94;1057060;28;20311;-47